sensor_id;sensor_type;location;lat;lon;timestamp;pressure;altitude;pressure_sealevel;temperature;humidity
8366;BME280;4220;42.502;24.188;2023-07-09T00:01:44;95581.56;;;19.68;99.64
8366;BME280;4220;42.502;24.188;2023-07-09T00:04:11;95584.25;;;19.73;99.57
8366;BME280;4220;42.502;24.188;2023-07-09T00:06:38;95578.88;;;19.73;99.18
8366;BME280;4220;42.502;24.188;2023-07-09T00:09:12;95583.22;;;19.79;98.96
8366;BME280;4220;42.502;24.188;2023-07-09T00:11:40;95572.41;;;19.69;100.00
8366;BME280;4220;42.502;24.188;2023-07-09T00:14:08;95550.88;;;19.69;98.65
8366;BME280;4220;42.502;24.188;2023-07-09T00:16:37;95587.53;;;19.90;98.37
8366;BME280;4220;42.502;24.188;2023-07-09T00:19:04;95588.59;;;19.74;97.45
8366;BME280;4220;42.502;24.188;2023-07-09T00:21:31;95591.81;;;19.81;97.69
8366;BME280;4220;42.502;24.188;2023-07-09T00:24:00;95586.47;;;19.91;96.44
8366;BME280;4220;42.502;24.188;2023-07-09T00:26:30;95582.66;;;19.77;96.80
8366;BME280;4220;42.502;24.188;2023-07-09T00:28:58;95517.94;;;19.27;96.11
8366;BME280;4220;42.502;24.188;2023-07-09T00:31:25;95579.97;;;19.67;96.34
8366;BME280;4220;42.502;24.188;2023-07-09T00:33:53;95592.88;;;19.65;96.65
8366;BME280;4220;42.502;24.188;2023-07-09T00:36:26;95592.31;;;19.68;95.80
8366;BME280;4220;42.502;24.188;2023-07-09T00:38:54;95590.75;;;19.72;95.85
8366;BME280;4220;42.502;24.188;2023-07-09T00:41:25;95587.50;;;19.85;95.15
8366;BME280;4220;42.502;24.188;2023-07-09T00:43:54;95591.25;;;19.69;94.60
8366;BME280;4220;42.502;24.188;2023-07-09T00:49:32;95584.84;;;19.75;94.63
8366;BME280;4220;42.502;24.188;2023-07-09T00:52:02;95587.19;;;19.56;96.09
8366;BME280;4220;42.502;24.188;2023-07-09T00:54:33;95589.06;;;19.56;97.49
8366;BME280;4220;42.502;24.188;2023-07-09T00:57:06;95570.25;;;19.61;96.95
8366;BME280;4220;42.502;24.188;2023-07-09T00:59:34;95573.75;;;19.62;95.91
8366;BME280;4220;42.502;24.188;2023-07-09T01:02:02;95576.19;;;19.78;95.04
8366;BME280;4220;42.502;24.188;2023-07-09T01:04:30;95579.19;;;19.82;95.23
8366;BME280;4220;42.502;24.188;2023-07-09T01:06:57;95540.09;;;19.59;95.26
8366;BME280;4220;42.502;24.188;2023-07-09T01:09:25;95580.53;;;19.94;95.15
8366;BME280;4220;42.502;24.188;2023-07-09T01:11:52;95584.59;;;19.92;95.21
8366;BME280;4220;42.502;24.188;2023-07-09T01:14:22;95581.06;;;19.91;95.68
8366;BME280;4220;42.502;24.188;2023-07-09T01:16:53;95581.06;;;19.81;96.25
8366;BME280;4220;42.502;24.188;2023-07-09T01:19:23;95568.13;;;19.73;95.91
8366;BME280;4220;42.502;24.188;2023-07-09T01:21:53;95580.50;;;19.74;96.23
8366;BME280;4220;42.502;24.188;2023-07-09T01:24:46;95580.50;;;19.74;95.20
8366;BME280;4220;42.502;24.188;2023-07-09T01:27:13;95584.25;;;19.63;95.69
8366;BME280;4220;42.502;24.188;2023-07-09T01:29:42;95584.78;;;19.60;95.10
8366;BME280;4220;42.502;24.188;2023-07-09T01:32:13;95574.53;;;19.52;95.76
8366;BME280;4220;42.502;24.188;2023-07-09T01:34:40;95565.91;;;19.40;95.15
8366;BME280;4220;42.502;24.188;2023-07-09T01:37:09;95565.84;;;19.35;96.14
8366;BME280;4220;42.502;24.188;2023-07-09T01:39:36;95570.34;;;19.19;95.38
8366;BME280;4220;42.502;24.188;2023-07-09T01:42:06;95580.03;;;19.15;96.23
8366;BME280;4220;42.502;24.188;2023-07-09T01:44:34;95567.91;;;19.08;96.79
8366;BME280;4220;42.502;24.188;2023-07-09T01:47:01;95571.09;;;19.05;97.96
8366;BME280;4220;42.502;24.188;2023-07-09T01:49:29;95565.13;;;18.92;97.77
8366;BME280;4220;42.502;24.188;2023-07-09T01:51:58;95575.38;;;19.01;96.92
8366;BME280;4220;42.502;24.188;2023-07-09T01:54:28;95575.94;;;19.03;96.95
8366;BME280;4220;42.502;24.188;2023-07-09T01:57:13;95581.91;;;19.15;96.78
8366;BME280;4220;42.502;24.188;2023-07-09T01:59:40;95544.47;;;18.98;95.70
8366;BME280;4220;42.502;24.188;2023-07-09T02:02:07;95587.31;;;19.25;94.76
8366;BME280;4220;42.502;24.188;2023-07-09T02:04:34;95578.69;;;19.18;94.64
8366;BME280;4220;42.502;24.188;2023-07-09T02:07:01;95580.78;;;19.01;95.64
8366;BME280;4220;42.502;24.188;2023-07-09T02:09:29;95583.47;;;19.06;94.94
8366;BME280;4220;42.502;24.188;2023-07-09T02:11:56;95584.88;;;19.18;93.89
8366;BME280;4220;42.502;24.188;2023-07-09T02:14:23;95583.28;;;19.22;94.53
8366;BME280;4220;42.502;24.188;2023-07-09T02:16:50;95586.28;;;19.31;93.44
8366;BME280;4220;42.502;24.188;2023-07-09T02:19:17;95581.97;;;19.35;92.57
8366;BME280;4220;42.502;24.188;2023-07-09T02:21:44;95588.69;;;19.32;90.04
8366;BME280;4220;42.502;24.188;2023-07-09T02:24:11;95593.25;;;19.27;91.23
8366;BME280;4220;42.502;24.188;2023-07-09T02:26:39;95595.88;;;19.17;91.07
8366;BME280;4220;42.502;24.188;2023-07-09T02:29:06;95585.09;;;19.02;92.47
8366;BME280;4220;42.502;24.188;2023-07-09T02:31:33;95590.47;;;19.07;90.33
8366;BME280;4220;42.502;24.188;2023-07-09T02:34:00;95559.09;;;18.70;93.55
8366;BME280;4220;42.502;24.188;2023-07-09T02:36:28;95603.31;;;18.94;93.62
8366;BME280;4220;42.502;24.188;2023-07-09T02:38:55;95599.03;;;18.99;94.06
8366;BME280;4220;42.502;24.188;2023-07-09T02:41:22;95605.00;;;19.06;94.15
8366;BME280;4220;42.502;24.188;2023-07-09T02:43:50;95605.00;;;19.11;94.43
8366;BME280;4220;42.502;24.188;2023-07-09T02:46:17;95610.63;;;19.09;93.03
8366;BME280;4220;42.502;24.188;2023-07-09T02:48:43;95601.22;;;19.07;93.82
8366;BME280;4220;42.502;24.188;2023-07-09T02:51:10;95591.81;;;19.04;93.02
8366;BME280;4220;42.502;24.188;2023-07-09T02:53:37;95606.88;;;19.10;92.38
8366;BME280;4220;42.502;24.188;2023-07-09T02:56:04;95608.28;;;19.18;93.28
8366;BME280;4220;42.502;24.188;2023-07-09T02:58:31;95622.25;;;19.20;91.94
8366;BME280;4220;42.502;24.188;2023-07-09T03:00:59;95615.56;;;19.27;91.11
8366;BME280;4220;42.502;24.188;2023-07-09T03:03:26;95622.84;;;19.32;92.10
8366;BME280;4220;42.502;24.188;2023-07-09T03:05:54;95621.06;;;19.42;92.73
8366;BME280;4220;42.502;24.188;2023-07-09T03:08:20;95616.50;;;19.48;91.35
8366;BME280;4220;42.502;24.188;2023-07-09T03:10:47;95626.66;;;19.36;89.19
8366;BME280;4220;42.502;24.188;2023-07-09T03:13:14;95615.53;;;19.17;89.93
8366;BME280;4220;42.502;24.188;2023-07-09T03:15:41;95608.22;;;19.08;90.48
8366;BME280;4220;42.502;24.188;2023-07-09T03:18:09;95616.38;;;19.23;89.87
8366;BME280;4220;42.502;24.188;2023-07-09T03:20:36;95608.88;;;19.30;89.46
8366;BME280;4220;42.502;24.188;2023-07-09T03:23:04;95606.16;;;19.25;89.78
8366;BME280;4220;42.502;24.188;2023-07-09T03:25:31;95610.69;;;19.19;89.17
8366;BME280;4220;42.502;24.188;2023-07-09T03:27:58;95612.28;;;19.15;88.77
8366;BME280;4220;42.502;24.188;2023-07-09T03:30:24;95612.84;;;19.17;89.45
8366;BME280;4220;42.502;24.188;2023-07-09T03:32:51;95602.63;;;19.19;87.99
8366;BME280;4220;42.502;24.188;2023-07-09T03:35:19;95615.28;;;19.29;86.16
8366;BME280;4220;42.502;24.188;2023-07-09T03:37:47;95610.56;;;19.46;84.02
8366;BME280;4220;42.502;24.188;2023-07-09T03:40:20;95617.94;;;19.14;90.57
8366;BME280;4220;42.502;24.188;2023-07-09T03:42:48;95610.38;;;19.06;92.35
8366;BME280;4220;42.502;24.188;2023-07-09T03:45:15;95600.41;;;19.01;91.41
8366;BME280;4220;42.502;24.188;2023-07-09T03:47:42;95612.25;;;19.05;91.63
8366;BME280;4220;42.502;24.188;2023-07-09T03:50:09;95629.53;;;19.24;91.29
8366;BME280;4220;42.502;24.188;2023-07-09T03:52:38;95623.16;;;19.35;91.12
8366;BME280;4220;42.502;24.188;2023-07-09T03:55:05;95594.28;;;19.16;90.78
8366;BME280;4220;42.502;24.188;2023-07-09T03:57:33;95630.19;;;19.46;91.19
8366;BME280;4220;42.502;24.188;2023-07-09T04:00:00;95641.28;;;19.55;90.99
8366;BME280;4220;42.502;24.188;2023-07-09T04:02:28;95633.47;;;19.58;91.22
8366;BME280;4220;42.502;24.188;2023-07-09T04:04:54;95641.25;;;19.50;91.23
8366;BME280;4220;42.502;24.188;2023-07-09T04:07:21;95639.69;;;19.64;90.62
8366;BME280;4220;42.502;24.188;2023-07-09T04:09:49;95650.22;;;19.81;88.99
8366;BME280;4220;42.502;24.188;2023-07-09T04:12:16;95639.19;;;19.77;87.01
8366;BME280;4220;42.502;24.188;2023-07-09T04:14:43;95634.38;;;19.89;86.92
8366;BME280;4220;42.502;24.188;2023-07-09T04:17:10;95637.34;;;19.83;87.56
8366;BME280;4220;42.502;24.188;2023-07-09T04:19:37;95646.50;;;19.97;86.17
8366;BME280;4220;42.502;24.188;2023-07-09T04:22:04;95641.94;;;20.07;81.65
8366;BME280;4220;42.502;24.188;2023-07-09T04:24:31;95652.19;;;20.10;82.65
8366;BME280;4220;42.502;24.188;2023-07-09T04:27:00;95658.16;;;20.23;84.34
8366;BME280;4220;42.502;24.188;2023-07-09T04:29:28;95633.06;;;20.07;85.44
8366;BME280;4220;42.502;24.188;2023-07-09T04:31:55;95639.56;;;20.26;84.11
8366;BME280;4220;42.502;24.188;2023-07-09T04:34:22;95657.63;;;20.26;79.71
8366;BME280;4220;42.502;24.188;2023-07-09T04:36:49;95666.53;;;20.26;80.24
8366;BME280;4220;42.502;24.188;2023-07-09T04:39:16;95671.63;;;20.33;81.24
8366;BME280;4220;42.502;24.188;2023-07-09T04:41:43;95676.75;;;20.29;83.04
8366;BME280;4220;42.502;24.188;2023-07-09T04:44:11;95673.81;;;20.36;79.96
8366;BME280;4220;42.502;24.188;2023-07-09T04:46:38;95672.19;;;20.50;80.53
8366;BME280;4220;42.502;24.188;2023-07-09T04:49:05;95668.16;;;20.52;76.94
8366;BME280;4220;42.502;24.188;2023-07-09T04:51:32;95667.88;;;20.44;79.33
8366;BME280;4220;42.502;24.188;2023-07-09T04:53:59;95657.91;;;20.39;79.52
8366;BME280;4220;42.502;24.188;2023-07-09T04:56:28;95676.75;;;20.44;77.35
8366;BME280;4220;42.502;24.188;2023-07-09T04:58:55;95682.94;;;20.40;79.75
8366;BME280;4220;42.502;24.188;2023-07-09T05:01:23;95679.19;;;20.36;80.43
8366;BME280;4220;42.502;24.188;2023-07-09T05:03:50;95610.69;;;19.86;81.42
8366;BME280;4220;42.502;24.188;2023-07-09T05:06:17;95683.50;;;20.32;82.43
8366;BME280;4220;42.502;24.188;2023-07-09T05:08:43;95686.19;;;20.32;82.61
8366;BME280;4220;42.502;24.188;2023-07-09T05:11:10;95641.41;;;20.10;81.27
8366;BME280;4220;42.502;24.188;2023-07-09T05:13:37;95682.97;;;20.45;81.82
8366;BME280;4220;42.502;24.188;2023-07-09T05:16:04;95678.38;;;20.55;80.27
8366;BME280;4220;42.502;24.188;2023-07-09T05:18:32;95679.47;;;20.59;82.34
8366;BME280;4220;42.502;24.188;2023-07-09T05:20:59;95676.22;;;20.67;81.56
8366;BME280;4220;42.502;24.188;2023-07-09T05:23:26;95684.59;;;20.81;77.26
8366;BME280;4220;42.502;24.188;2023-07-09T05:25:56;95678.66;;;20.79;75.70
8366;BME280;4220;42.502;24.188;2023-07-09T05:28:23;95683.50;;;20.92;75.36
8366;BME280;4220;42.502;24.188;2023-07-09T05:30:50;95688.06;;;21.02;75.61
8366;BME280;4220;42.502;24.188;2023-07-09T05:33:18;95694.81;;;21.14;75.16
8366;BME280;4220;42.502;24.188;2023-07-09T05:35:46;95652.75;;;20.98;74.22
8366;BME280;4220;42.502;24.188;2023-07-09T05:38:13;95687.25;;;21.21;74.70
8366;BME280;4220;42.502;24.188;2023-07-09T05:40:40;95688.06;;;21.32;77.33
8366;BME280;4220;42.502;24.188;2023-07-09T05:43:07;95672.13;;;21.25;78.31
8366;BME280;4220;42.502;24.188;2023-07-09T05:45:34;95685.06;;;21.28;78.35
8366;BME280;4220;42.502;24.188;2023-07-09T05:48:01;95675.13;;;21.04;79.89
8366;BME280;4220;42.502;24.188;2023-07-09T05:50:28;95668.94;;;20.98;81.60
8366;BME280;4220;42.502;24.188;2023-07-09T05:52:56;95640.91;;;20.79;80.93
8366;BME280;4220;42.502;24.188;2023-07-09T05:55:23;95677.03;;;21.08;81.39
8366;BME280;4220;42.502;24.188;2023-07-09T05:57:50;95692.41;;;20.98;80.38
8366;BME280;4220;42.502;24.188;2023-07-09T06:00:17;95670.00;;;20.92;80.62
8366;BME280;4220;42.502;24.188;2023-07-09T06:02:44;95665.16;;;20.94;80.27
8366;BME280;4220;42.502;24.188;2023-07-09T06:05:11;95670.53;;;20.99;81.17
8366;BME280;4220;42.502;24.188;2023-07-09T06:07:38;95685.13;;;21.08;77.65
8366;BME280;4220;42.502;24.188;2023-07-09T06:10:08;95667.84;;;21.04;80.00
8366;BME280;4220;42.502;24.188;2023-07-09T06:12:35;95691.31;;;21.14;77.41
8366;BME280;4220;42.502;24.188;2023-07-09T06:15:03;95687.00;;;21.18;76.81
8366;BME280;4220;42.502;24.188;2023-07-09T06:17:30;95663.50;;;21.23;76.72
8366;BME280;4220;42.502;24.188;2023-07-09T06:19:57;95684.84;;;21.25;75.84
8366;BME280;4220;42.502;24.188;2023-07-09T06:22:24;95676.22;;;21.23;76.58
8366;BME280;4220;42.502;24.188;2023-07-09T06:24:50;95662.13;;;21.31;76.07
8366;BME280;4220;42.502;24.188;2023-07-09T06:27:19;95680.78;;;21.27;76.96
8366;BME280;4220;42.502;24.188;2023-07-09T06:29:46;95675.88;;;21.39;77.07
8366;BME280;4220;42.502;24.188;2023-07-09T06:32:12;95673.44;;;21.38;73.19
8366;BME280;4220;42.502;24.188;2023-07-09T06:34:39;95666.13;;;21.48;73.91
8366;BME280;4220;42.502;24.188;2023-07-09T06:37:06;95667.78;;;21.39;77.66
8366;BME280;4220;42.502;24.188;2023-07-09T06:39:33;95661.88;;;21.37;78.27
8366;BME280;4220;42.502;24.188;2023-07-09T06:42:00;95677.44;;;21.56;78.31
8366;BME280;4220;42.502;24.188;2023-07-09T06:44:28;95681.75;;;21.57;77.97
8366;BME280;4220;42.502;24.188;2023-07-09T06:46:55;95672.84;;;21.56;77.14
8366;BME280;4220;42.502;24.188;2023-07-09T06:49:22;95677.47;;;21.50;77.05
8366;BME280;4220;42.502;24.188;2023-07-09T06:51:48;95683.13;;;21.49;77.78
8366;BME280;4220;42.502;24.188;2023-07-09T06:54:15;95682.31;;;21.48;77.78
8366;BME280;4220;42.502;24.188;2023-07-09T06:56:42;95690.91;;;21.61;77.24
8366;BME280;4220;42.502;24.188;2023-07-09T06:59:09;95682.50;;;21.72;76.31
8366;BME280;4220;42.502;24.188;2023-07-09T07:01:37;95689.78;;;21.82;75.11
8366;BME280;4220;42.502;24.188;2023-07-09T07:04:04;95645.34;;;21.49;76.31
8366;BME280;4220;42.502;24.188;2023-07-09T07:06:31;95667.41;;;21.66;76.40
8366;BME280;4220;42.502;24.188;2023-07-09T07:08:58;95665.75;;;21.85;77.67
8366;BME280;4220;42.502;24.188;2023-07-09T07:11:24;95637.69;;;21.71;76.08
8366;BME280;4220;42.502;24.188;2023-07-09T07:13:55;95661.97;;;21.76;75.87
8366;BME280;4220;42.502;24.188;2023-07-09T07:16:23;95671.28;;;22.09;77.04
8366;BME280;4220;42.502;24.188;2023-07-09T07:18:51;95686.88;;;22.22;75.27
8366;BME280;4220;42.502;24.188;2023-07-09T07:21:18;95664.75;;;22.15;74.00
8366;BME280;4220;42.502;24.188;2023-07-09T07:23:45;95679.28;;;22.24;74.91
8366;BME280;4220;42.502;24.188;2023-07-09T07:26:12;95675.69;;;22.39;76.25
8366;BME280;4220;42.502;24.188;2023-07-09T07:28:38;95675.25;;;22.22;73.06
8366;BME280;4220;42.502;24.188;2023-07-09T07:31:08;95671.69;;;22.26;73.79
8366;BME280;4220;42.502;24.188;2023-07-09T07:33:35;95674.94;;;22.33;74.52
8366;BME280;4220;42.502;24.188;2023-07-09T07:36:05;95674.97;;;22.28;74.98
8366;BME280;4220;42.502;24.188;2023-07-09T07:38:32;95679.16;;;22.44;73.06
8366;BME280;4220;42.502;24.188;2023-07-09T07:41:00;95669.50;;;22.38;73.47
8366;BME280;4220;42.502;24.188;2023-07-09T07:43:27;95683.38;;;22.60;74.55
8366;BME280;4220;42.502;24.188;2023-07-09T07:45:53;95667.63;;;22.72;72.71
8366;BME280;4220;42.502;24.188;2023-07-09T07:48:20;95643.84;;;22.69;72.38
8366;BME280;4220;42.502;24.188;2023-07-09T07:50:47;95668.16;;;22.74;72.91
8366;BME280;4220;42.502;24.188;2023-07-09T07:53:16;95669.94;;;22.84;71.51
8366;BME280;4220;42.502;24.188;2023-07-09T07:55:43;95660.56;;;22.76;72.29
8366;BME280;4220;42.502;24.188;2023-07-09T07:58:11;95663.59;;;22.99;72.25
8366;BME280;4220;42.502;24.188;2023-07-09T08:00:39;95666.81;;;23.01;70.15
8366;BME280;4220;42.502;24.188;2023-07-09T08:03:06;95661.91;;;23.03;70.52
8366;BME280;4220;42.502;24.188;2023-07-09T08:05:33;95655.38;;;23.09;70.64
8366;BME280;4220;42.502;24.188;2023-07-09T08:08:00;95647.38;;;22.99;70.37
8366;BME280;4220;42.502;24.188;2023-07-09T08:10:28;95660.28;;;23.07;70.82
8366;BME280;4220;42.502;24.188;2023-07-09T08:12:55;95646.41;;;23.13;70.20
8366;BME280;4220;42.502;24.188;2023-07-09T08:15:23;95656.81;;;23.25;68.50
8366;BME280;4220;42.502;24.188;2023-07-09T08:17:50;95631.84;;;23.33;69.96
8366;BME280;4220;42.502;24.188;2023-07-09T08:20:16;95658.16;;;23.56;68.95
8366;BME280;4220;42.502;24.188;2023-07-09T08:22:43;95647.97;;;23.67;68.26
8366;BME280;4220;42.502;24.188;2023-07-09T08:25:11;95646.84;;;23.49;68.37
8366;BME280;4220;42.502;24.188;2023-07-09T08:27:40;95633.03;;;23.51;69.49
8366;BME280;4220;42.502;24.188;2023-07-09T08:30:08;95611.78;;;23.39;67.94
8366;BME280;4220;42.502;24.188;2023-07-09T08:32:34;95633.13;;;23.64;68.19
8366;BME280;4220;42.502;24.188;2023-07-09T08:35:02;95627.13;;;23.67;68.64
8366;BME280;4220;42.502;24.188;2023-07-09T08:37:29;95649.47;;;23.78;67.99
8366;BME280;4220;42.502;24.188;2023-07-09T08:39:55;95639.91;;;23.85;68.49
8366;BME280;4220;42.502;24.188;2023-07-09T08:42:28;95618.88;;;23.96;68.45
8366;BME280;4220;42.502;24.188;2023-07-09T08:45:13;95632.41;;;24.20;66.11
8366;BME280;4220;42.502;24.188;2023-07-09T08:47:52;95623.16;;;24.21;67.84
8366;BME280;4220;42.502;24.188;2023-07-09T08:50:25;95632.63;;;24.23;66.43
8366;BME280;4220;42.502;24.188;2023-07-09T08:52:55;95633.41;;;24.42;67.48
8366;BME280;4220;42.502;24.188;2023-07-09T08:55:28;95629.81;;;24.47;66.74
8366;BME280;4220;42.502;24.188;2023-07-09T08:58:04;95641.44;;;24.66;67.14
8366;BME280;4220;42.502;24.188;2023-07-09T09:00:37;95640.47;;;24.76;66.26
8366;BME280;4220;42.502;24.188;2023-07-09T09:03:11;95639.16;;;24.73;65.18
8366;BME280;4220;42.502;24.188;2023-07-09T09:05:43;95648.16;;;24.87;65.35
8366;BME280;4220;42.502;24.188;2023-07-09T09:08:35;95639.97;;;24.74;64.67
8366;BME280;4220;42.502;24.188;2023-07-09T09:11:10;95659.72;;;24.79;64.83
8366;BME280;4220;42.502;24.188;2023-07-09T09:13:40;95640.25;;;24.91;65.80
8366;BME280;4220;42.502;24.188;2023-07-09T09:16:14;95635.63;;;24.91;64.82
8366;BME280;4220;42.502;24.188;2023-07-09T09:18:44;95641.81;;;24.78;64.79
8366;BME280;4220;42.502;24.188;2023-07-09T09:21:17;95641.56;;;24.93;65.28
8366;BME280;4220;42.502;24.188;2023-07-09T09:23:50;95644.88;;;25.04;64.81
8366;BME280;4220;42.502;24.188;2023-07-09T09:26:22;95645.41;;;25.19;63.93
8366;BME280;4220;42.502;24.188;2023-07-09T09:28:51;95644.81;;;25.22;61.86
8366;BME280;4220;42.502;24.188;2023-07-09T09:31:20;95656.41;;;25.42;62.80
8366;BME280;4220;42.502;24.188;2023-07-09T09:33:48;95644.72;;;25.27;61.64
8366;BME280;4220;42.502;24.188;2023-07-09T09:36:17;95649.25;;;25.18;62.56
8366;BME280;4220;42.502;24.188;2023-07-09T09:38:45;95626.31;;;25.24;62.89
8366;BME280;4220;42.502;24.188;2023-07-09T09:41:17;95613.25;;;25.26;61.41
8366;BME280;4220;42.502;24.188;2023-07-09T09:43:45;95652.50;;;25.61;61.88
8366;BME280;4220;42.502;24.188;2023-07-09T09:46:18;95639.94;;;25.79;64.34
8366;BME280;4220;42.502;24.188;2023-07-09T09:48:48;95660.25;;;25.81;63.93
8366;BME280;4220;42.502;24.188;2023-07-09T09:51:16;95645.97;;;25.49;64.32
8366;BME280;4220;42.502;24.188;2023-07-09T09:53:48;95645.34;;;25.65;64.23
8366;BME280;4220;42.502;24.188;2023-07-09T09:56:18;95637.19;;;25.92;64.82
8366;BME280;4220;42.502;24.188;2023-07-09T09:58:46;95640.59;;;25.98;63.96
8366;BME280;4220;42.502;24.188;2023-07-09T10:01:19;95642.50;;;25.97;63.03
8366;BME280;4220;42.502;24.188;2023-07-09T10:03:55;95630.44;;;26.04;61.24
8366;BME280;4220;42.502;24.188;2023-07-09T10:06:29;95629.00;;;26.06;61.36
8366;BME280;4220;42.502;24.188;2023-07-09T10:09:04;95625.88;;;26.26;59.11
8366;BME280;4220;42.502;24.188;2023-07-09T10:11:41;95611.84;;;26.33;60.54
8366;BME280;4220;42.502;24.188;2023-07-09T10:14:21;95629.47;;;26.35;61.21
8366;BME280;4220;42.502;24.188;2023-07-09T10:16:53;95633.50;;;26.38;61.15
8366;BME280;4220;42.502;24.188;2023-07-09T10:19:25;95604.41;;;26.25;61.82
8366;BME280;4220;42.502;24.188;2023-07-09T10:22:00;95594.41;;;26.12;60.95
8366;BME280;4220;42.502;24.188;2023-07-09T10:24:36;95621.25;;;26.49;56.06
8366;BME280;4220;42.502;24.188;2023-07-09T10:27:11;95611.00;;;26.46;54.78
8366;BME280;4220;42.502;24.188;2023-07-09T10:30:13;95617.66;;;26.76;56.84
8366;BME280;4220;42.502;24.188;2023-07-09T10:32:52;95622.69;;;26.91;59.01
8366;BME280;4220;42.502;24.188;2023-07-09T10:35:27;95621.88;;;26.68;58.48
8366;BME280;4220;42.502;24.188;2023-07-09T10:38:10;95609.69;;;26.66;58.91
8366;BME280;4220;42.502;24.188;2023-07-09T10:40:43;95607.47;;;26.45;58.99
8366;BME280;4220;42.502;24.188;2023-07-09T10:43:15;95605.69;;;26.41;58.02
8366;BME280;4220;42.502;24.188;2023-07-09T10:45:46;95609.94;;;26.55;58.14
8366;BME280;4220;42.502;24.188;2023-07-09T10:48:16;95600.75;;;26.74;57.14
8366;BME280;4220;42.502;24.188;2023-07-09T10:50:48;95597.28;;;26.95;59.01
8366;BME280;4220;42.502;24.188;2023-07-09T10:53:26;95611.41;;;27.06;58.04
8366;BME280;4220;42.502;24.188;2023-07-09T10:55:57;95612.78;;;27.25;54.22
8366;BME280;4220;42.502;24.188;2023-07-09T10:58:32;95617.94;;;27.66;50.54
8366;BME280;4220;42.502;24.188;2023-07-09T11:01:02;95615.91;;;27.89;48.97
8366;BME280;4220;42.502;24.188;2023-07-09T11:03:37;95616.31;;;28.30;48.92
8366;BME280;4220;42.502;24.188;2023-07-09T11:06:14;95615.84;;;28.37;52.51
8366;BME280;4220;42.502;24.188;2023-07-09T11:08:43;95612.31;;;28.36;52.49
8366;BME280;4220;42.502;24.188;2023-07-09T11:11:15;95603.94;;;28.24;54.14
8366;BME280;4220;42.502;24.188;2023-07-09T11:13:47;95617.09;;;28.31;53.90
8366;BME280;4220;42.502;24.188;2023-07-09T11:16:22;95614.47;;;27.92;53.07
8366;BME280;4220;42.502;24.188;2023-07-09T11:18:55;95601.75;;;27.61;55.39
8366;BME280;4220;42.502;24.188;2023-07-09T11:21:23;95600.94;;;27.69;56.05
8366;BME280;4220;42.502;24.188;2023-07-09T11:23:52;95598.41;;;27.81;56.92
8366;BME280;4220;42.502;24.188;2023-07-09T11:26:24;95594.00;;;28.03;54.02
8366;BME280;4220;42.502;24.188;2023-07-09T11:28:52;95577.16;;;28.09;51.50
8366;BME280;4220;42.502;24.188;2023-07-09T11:31:24;95606.53;;;28.55;49.27
8366;BME280;4220;42.502;24.188;2023-07-09T11:34:03;95596.44;;;28.64;51.38
8366;BME280;4220;42.502;24.188;2023-07-09T11:36:46;95598.66;;;28.36;52.55
8366;BME280;4220;42.502;24.188;2023-07-09T11:39:19;95564.63;;;28.34;53.71
8366;BME280;4220;42.502;24.188;2023-07-09T11:41:46;95599.28;;;28.59;52.14
8366;BME280;4220;42.502;24.188;2023-07-09T11:44:16;95604.44;;;28.26;50.05
8366;BME280;4220;42.502;24.188;2023-07-09T11:46:51;95589.34;;;28.03;50.37
8366;BME280;4220;42.502;24.188;2023-07-09T11:49:21;95599.63;;;28.49;50.14
8366;BME280;4220;42.502;24.188;2023-07-09T11:51:54;95594.78;;;28.89;48.90
8366;BME280;4220;42.502;24.188;2023-07-09T11:54:21;95601.63;;;29.21;49.56
8366;BME280;4220;42.502;24.188;2023-07-09T11:56:56;95598.69;;;29.63;48.74
8366;BME280;4220;42.502;24.188;2023-07-09T11:59:23;95601.78;;;29.62;48.61
8366;BME280;4220;42.502;24.188;2023-07-09T12:01:51;95581.44;;;29.80;46.50
8366;BME280;4220;42.502;24.188;2023-07-09T12:04:22;95578.41;;;29.73;43.95
8366;BME280;4220;42.502;24.188;2023-07-09T12:06:56;95587.75;;;30.01;43.90
8366;BME280;4220;42.502;24.188;2023-07-09T12:09:23;95587.88;;;30.25;41.31
8366;BME280;4220;42.502;24.188;2023-07-09T12:11:50;95580.63;;;30.50;38.83
8366;BME280;4220;42.502;24.188;2023-07-09T12:14:18;95583.00;;;30.72;40.78
8366;BME280;4220;42.502;24.188;2023-07-09T12:16:47;95585.91;;;30.55;41.74
8366;BME280;4220;42.502;24.188;2023-07-09T12:19:16;95531.56;;;30.24;41.81
8366;BME280;4220;42.502;24.188;2023-07-09T12:21:44;95571.72;;;30.32;41.09
8366;BME280;4220;42.502;24.188;2023-07-09T12:24:19;95570.72;;;30.78;41.20
8366;BME280;4220;42.502;24.188;2023-07-09T12:26:51;95566.25;;;31.19;39.76
8366;BME280;4220;42.502;24.188;2023-07-09T12:29:18;95563.53;;;31.31;40.91
8366;BME280;4220;42.502;24.188;2023-07-09T12:31:45;95557.66;;;30.96;42.55
8366;BME280;4220;42.502;24.188;2023-07-09T12:34:13;95559.47;;;30.38;43.88
8366;BME280;4220;42.502;24.188;2023-07-09T12:36:44;95556.41;;;30.19;44.38
8366;BME280;4220;42.502;24.188;2023-07-09T12:39:12;95562.00;;;30.44;44.96
8366;BME280;4220;42.502;24.188;2023-07-09T12:41:44;95555.44;;;30.57;44.63
8366;BME280;4220;42.502;24.188;2023-07-09T12:44:16;95552.75;;;31.01;43.26
8366;BME280;4220;42.502;24.188;2023-07-09T12:46:44;95561.34;;;30.47;42.92
8366;BME280;4220;42.502;24.188;2023-07-09T12:49:21;95562.50;;;29.96;42.61
8366;BME280;4220;42.502;24.188;2023-07-09T12:51:48;95558.00;;;29.70;45.71
8366;BME280;4220;42.502;24.188;2023-07-09T12:54:16;95560.50;;;29.55;44.85
8366;BME280;4220;42.502;24.188;2023-07-09T12:56:46;95541.69;;;29.53;45.53
8366;BME280;4220;42.502;24.188;2023-07-09T12:59:16;95552.38;;;29.96;43.98
8366;BME280;4220;42.502;24.188;2023-07-09T13:01:48;95541.91;;;30.19;45.79
8366;BME280;4220;42.502;24.188;2023-07-09T13:04:15;95531.38;;;30.29;46.21
8366;BME280;4220;42.502;24.188;2023-07-09T13:06:43;95552.53;;;30.00;45.92
8366;BME280;4220;42.502;24.188;2023-07-09T13:09:17;95534.28;;;29.54;46.93
8366;BME280;4220;42.502;24.188;2023-07-09T13:11:47;95548.22;;;29.32;45.90
8366;BME280;4220;42.502;24.188;2023-07-09T13:14:18;95537.84;;;29.08;47.30
8366;BME280;4220;42.502;24.188;2023-07-09T13:16:46;95554.34;;;29.29;48.36
8366;BME280;4220;42.502;24.188;2023-07-09T13:19:14;95536.97;;;29.62;47.78
8366;BME280;4220;42.502;24.188;2023-07-09T13:21:41;95538.31;;;30.06;46.39
8366;BME280;4220;42.502;24.188;2023-07-09T13:24:13;95546.47;;;30.35;45.41